sensor_id;sensor_type;location;lat;lon;timestamp;pressure;altitude;pressure_sealevel;temperature;humidity
82395;BME280;72031;51.786;4.662;2024-02-21T00:02:04;102289.06;;;9.25;90.51
82395;BME280;72031;51.786;4.662;2024-02-21T00:04:31;102286.50;;;9.22;90.70
82395;BME280;72031;51.786;4.662;2024-02-21T00:06:57;102273.03;;;9.27;90.23
82395;BME280;72031;51.786;4.662;2024-02-21T00:09:22;102272.03;;;9.29;89.92
82395;BME280;72031;51.786;4.662;2024-02-21T00:11:48;102268.56;;;9.27;90.43
82395;BME280;72031;51.786;4.662;2024-02-21T00:14:13;102270.34;;;9.27;89.97
82395;BME280;72031;51.786;4.662;2024-02-21T00:16:39;102263.16;;;9.29;89.49
82395;BME280;72031;51.786;4.662;2024-02-21T00:19:04;102258.16;;;9.21;89.81
82395;BME280;72031;51.786;4.662;2024-02-21T00:21:31;102253.50;;;9.26;89.38
82395;BME280;72031;51.786;4.662;2024-02-21T00:23:56;102247.19;;;9.29;89.34
82395;BME280;72031;51.786;4.662;2024-02-21T00:26:22;102240.50;;;9.19;89.84
82395;BME280;72031;51.786;4.662;2024-02-21T00:28:48;102242.78;;;9.28;88.79
82395;BME280;72031;51.786;4.662;2024-02-21T00:31:13;102242.78;;;9.28;89.47
82395;BME280;72031;51.786;4.662;2024-02-21T00:33:39;102241.59;;;9.35;88.78
82395;BME280;72031;51.786;4.662;2024-02-21T00:36:04;102231.13;;;9.30;88.78
82395;BME280;72031;51.786;4.662;2024-02-21T00:38:30;102233.00;;;9.28;88.88
82395;BME280;72031;51.786;4.662;2024-02-21T00:40:55;102247.34;;;9.24;89.58
82395;BME280;72031;51.786;4.662;2024-02-21T00:43:21;102247.44;;;9.23;88.86
82395;BME280;72031;51.786;4.662;2024-02-21T00:45:49;102248.25;;;9.25;88.78
82395;BME280;72031;51.786;4.662;2024-02-21T00:48:14;102242.84;;;9.26;88.98
82395;BME280;72031;51.786;4.662;2024-02-21T00:50:40;102248.97;;;9.28;88.62
82395;BME280;72031;51.786;4.662;2024-02-21T00:53:05;102253.31;;;9.31;89.16
82395;BME280;72031;51.786;4.662;2024-02-21T00:55:31;102243.78;;;9.25;88.68
82395;BME280;72031;51.786;4.662;2024-02-21T00:57:56;102247.34;;;9.24;89.16
82395;BME280;72031;51.786;4.662;2024-02-21T01:00:22;102241.38;;;9.19;89.03
82395;BME280;72031;51.786;4.662;2024-02-21T01:02:47;102236.84;;;9.21;89.35
82395;BME280;72031;51.786;4.662;2024-02-21T01:05:13;102226.03;;;9.24;88.98
82395;BME280;72031;51.786;4.662;2024-02-21T01:07:38;102217.34;;;9.21;89.05
82395;BME280;72031;51.786;4.662;2024-02-21T01:10:04;102223.28;;;9.27;88.54
82395;BME280;72031;51.786;4.662;2024-02-21T01:12:30;102221.47;;;9.28;88.92
82395;BME280;72031;51.786;4.662;2024-02-21T01:14:55;102219.00;;;9.23;89.04
82395;BME280;72031;51.786;4.662;2024-02-21T01:17:21;102208.16;;;9.28;88.59
82395;BME280;72031;51.786;4.662;2024-02-21T01:19:46;102217.25;;;9.22;89.37
82395;BME280;72031;51.786;4.662;2024-02-21T01:22:12;102218.41;;;9.17;89.26
82395;BME280;72031;51.786;4.662;2024-02-21T01:24:37;102214.84;;;9.16;89.25
82395;BME280;72031;51.786;4.662;2024-02-21T01:27:03;102209.97;;;9.27;89.08
82395;BME280;72031;51.786;4.662;2024-02-21T01:29:29;102207.63;;;9.20;88.56
82395;BME280;72031;51.786;4.662;2024-02-21T01:31:54;102212.06;;;9.19;88.99
82395;BME280;72031;51.786;4.662;2024-02-21T01:34:19;102206.06;;;9.14;89.03
82395;BME280;72031;51.786;4.662;2024-02-21T01:36:45;102215.13;;;9.10;89.81
82395;BME280;72031;51.786;4.662;2024-02-21T01:39:10;102205.09;;;9.17;89.02
82395;BME280;72031;51.786;4.662;2024-02-21T01:41:36;102195.34;;;9.16;88.81
82395;BME280;72031;51.786;4.662;2024-02-21T01:44:01;102197.13;;;9.15;88.86
82395;BME280;72031;51.786;4.662;2024-02-21T01:46:27;102201.59;;;9.15;89.34
82395;BME280;72031;51.786;4.662;2024-02-21T01:48:57;102198.69;;;9.21;88.95
82395;BME280;72031;51.786;4.662;2024-02-21T01:51:24;102199.75;;;9.17;88.04
82395;BME280;72031;51.786;4.662;2024-02-21T01:53:51;102189.22;;;9.14;88.51
82395;BME280;72031;51.786;4.662;2024-02-21T01:56:17;102178.31;;;9.20;88.22
82395;BME280;72031;51.786;4.662;2024-02-21T01:58:43;102169.47;;;9.19;88.17
82395;BME280;72031;51.786;4.662;2024-02-21T02:01:10;102173.50;;;9.08;88.71
82395;BME280;72031;51.786;4.662;2024-02-21T02:03:36;102170.66;;;9.12;88.45
82395;BME280;72031;51.786;4.662;2024-02-21T02:06:03;102172.59;;;9.09;88.39
82395;BME280;72031;51.786;4.662;2024-02-21T02:08:31;102168.31;;;9.05;89.17
82395;BME280;72031;51.786;4.662;2024-02-21T02:10:57;102168.16;;;9.08;88.50
82395;BME280;72031;51.786;4.662;2024-02-21T02:13:22;102167.25;;;9.09;89.00
82395;BME280;72031;51.786;4.662;2024-02-21T02:15:49;102154.81;;;9.09;88.95
82395;BME280;72031;51.786;4.662;2024-02-21T02:18:17;102159.06;;;9.13;88.58
82395;BME280;72031;51.786;4.662;2024-02-21T02:20:46;102159.28;;;9.09;88.91
82395;BME280;72031;51.786;4.662;2024-02-21T02:23:33;102155.75;;;9.08;89.17
82395;BME280;72031;51.786;4.662;2024-02-21T02:25:59;102157.59;;;9.06;89.48
82395;BME280;72031;51.786;4.662;2024-02-21T02:28:26;102160.06;;;9.11;89.07
82395;BME280;72031;51.786;4.662;2024-02-21T02:30:52;102153.94;;;9.09;88.96
82395;BME280;72031;51.786;4.662;2024-02-21T02:33:18;102154.84;;;9.08;88.90
82395;BME280;72031;51.786;4.662;2024-02-21T02:35:44;102158.44;;;9.07;88.69
82395;BME280;72031;51.786;4.662;2024-02-21T02:38:09;102158.44;;;9.07;88.55
82395;BME280;72031;51.786;4.662;2024-02-21T02:40:38;102155.78;;;9.07;88.66
82395;BME280;72031;51.786;4.662;2024-02-21T02:43:03;102147.69;;;9.10;88.63
82395;BME280;72031;51.786;4.662;2024-02-21T02:45:29;102140.63;;;9.09;89.21
82395;BME280;72031;51.786;4.662;2024-02-21T02:47:56;102136.28;;;9.06;88.59
82395;BME280;72031;51.786;4.662;2024-02-21T02:50:23;102131.97;;;9.03;89.46
82395;BME280;72031;51.786;4.662;2024-02-21T02:52:49;102129.13;;;9.08;89.36
82395;BME280;72031;51.786;4.662;2024-02-21T02:55:16;102115.13;;;9.03;88.90
82395;BME280;72031;51.786;4.662;2024-02-21T02:57:41;102111.66;;;9.01;89.02
82395;BME280;72031;51.786;4.662;2024-02-21T03:00:07;102116.25;;;8.97;89.10
82395;BME280;72031;51.786;4.662;2024-02-21T03:02:34;102105.81;;;8.93;89.12
82395;BME280;72031;51.786;4.662;2024-02-21T03:05:00;102101.28;;;8.95;89.23
82395;BME280;72031;51.786;4.662;2024-02-21T03:07:25;102098.28;;;9.02;89.52
82395;BME280;72031;51.786;4.662;2024-02-21T03:09:51;102093.66;;;9.06;88.75
82395;BME280;72031;51.786;4.662;2024-02-21T03:12:18;102093.50;;;9.11;88.73
82395;BME280;72031;51.786;4.662;2024-02-21T03:14:52;102090.69;;;9.14;88.47
82395;BME280;72031;51.786;4.662;2024-02-21T03:17:18;102080.28;;;9.08;88.77
82395;BME280;72031;51.786;4.662;2024-02-21T03:19:43;102075.25;;;9.01;89.13
82395;BME280;72031;51.786;4.662;2024-02-21T03:22:09;102082.16;;;9.06;89.38
82395;BME280;72031;51.786;4.662;2024-02-21T03:24:34;102072.38;;;9.06;89.42
82395;BME280;72031;51.786;4.662;2024-02-21T03:27:00;102072.03;;;9.14;89.11
82395;BME280;72031;51.786;4.662;2024-02-21T03:29:25;102072.19;;;9.11;89.84
82395;BME280;72031;51.786;4.662;2024-02-21T03:31:51;102070.25;;;9.14;89.27
82395;BME280;72031;51.786;4.662;2024-02-21T03:34:16;102060.38;;;9.16;89.36
82395;BME280;72031;51.786;4.662;2024-02-21T03:36:42;102060.44;;;9.15;89.70
82395;BME280;72031;51.786;4.662;2024-02-21T03:39:07;102061.13;;;9.20;89.11
82395;BME280;72031;51.786;4.662;2024-02-21T03:41:35;102053.41;;;9.14;89.56
82395;BME280;72031;51.786;4.662;2024-02-21T03:44:01;102055.88;;;9.18;89.02
82395;BME280;72031;51.786;4.662;2024-02-21T03:46:27;102048.06;;;9.14;89.62
82395;BME280;72031;51.786;4.662;2024-02-21T03:48:53;102050.31;;;9.23;90.03
82395;BME280;72031;51.786;4.662;2024-02-21T03:51:18;102055.00;;;9.18;89.49
82395;BME280;72031;51.786;4.662;2024-02-21T03:53:43;102058.31;;;9.23;89.75
82395;BME280;72031;51.786;4.662;2024-02-21T03:56:09;102052.00;;;9.25;89.35
82395;BME280;72031;51.786;4.662;2024-02-21T03:58:34;102057.53;;;9.21;89.74
82395;BME280;72031;51.786;4.662;2024-02-21T04:01:01;102050.63;;;9.17;89.86
82395;BME280;72031;51.786;4.662;2024-02-21T04:03:27;102050.31;;;9.23;89.55
82395;BME280;72031;51.786;4.662;2024-02-21T04:05:52;102036.47;;;9.15;89.84
82395;BME280;72031;51.786;4.662;2024-02-21T04:08:18;102051.66;;;9.13;90.12
82395;BME280;72031;51.786;4.662;2024-02-21T04:10:43;102049.59;;;9.19;89.53
82395;BME280;72031;51.786;4.662;2024-02-21T04:13:09;102047.66;;;9.23;90.06
82395;BME280;72031;51.786;4.662;2024-02-21T04:15:35;102048.81;;;9.17;89.65
82395;BME280;72031;51.786;4.662;2024-02-21T04:18:00;102051.06;;;9.26;89.06
82395;BME280;72031;51.786;4.662;2024-02-21T04:20:26;102049.78;;;9.15;89.09
82395;BME280;72031;51.786;4.662;2024-02-21T04:22:51;102048.06;;;9.14;89.62
82395;BME280;72031;51.786;4.662;2024-02-21T04:25:17;102052.53;;;9.13;89.48
82395;BME280;72031;51.786;4.662;2024-02-21T04:27:43;102046.56;;;9.08;89.85
82395;BME280;72031;51.786;4.662;2024-02-21T04:30:09;102052.75;;;9.09;89.94
82395;BME280;72031;51.786;4.662;2024-02-21T04:32:35;102040.31;;;9.09;90.35
82395;BME280;72031;51.786;4.662;2024-02-21T04:35:00;102043.06;;;9.06;90.14
82395;BME280;72031;51.786;4.662;2024-02-21T04:37:26;102027.03;;;9.08;90.78
82395;BME280;72031;51.786;4.662;2024-02-21T04:39:51;102023.31;;;9.12;90.33
82395;BME280;72031;51.786;4.662;2024-02-21T04:42:17;102024.25;;;9.11;90.00
82395;BME280;72031;51.786;4.662;2024-02-21T04:44:42;102017.19;;;9.10;90.26
82395;BME280;72031;51.786;4.662;2024-02-21T04:47:08;102009.31;;;9.07;90.91
82395;BME280;72031;51.786;4.662;2024-02-21T04:49:34;102007.41;;;9.10;90.55
82395;BME280;72031;51.786;4.662;2024-02-21T04:52:00;102005.59;;;9.11;90.87
82395;BME280;72031;51.786;4.662;2024-02-21T04:54:26;102002.53;;;9.20;90.41
82395;BME280;72031;51.786;4.662;2024-02-21T04:56:51;102002.09;;;9.10;91.03
82395;BME280;72031;51.786;4.662;2024-02-21T04:59:17;101996.47;;;9.16;90.62
82395;BME280;72031;51.786;4.662;2024-02-21T05:01:43;101996.84;;;9.09;91.18
82395;BME280;72031;51.786;4.662;2024-02-21T05:04:08;101993.50;;;9.03;90.81
82395;BME280;72031;51.786;4.662;2024-02-21T05:06:41;101974.19;;;8.98;91.00
82395;BME280;72031;51.786;4.662;2024-02-21T05:09:07;101979.75;;;8.94;91.57
82395;BME280;72031;51.786;4.662;2024-02-21T05:11:34;101973.41;;;8.96;90.93
82395;BME280;72031;51.786;4.662;2024-02-21T05:14:00;101965.69;;;8.90;91.41
82395;BME280;72031;51.786;4.662;2024-02-21T05:16:25;101961.22;;;8.91;91.12
82395;BME280;72031;51.786;4.662;2024-02-21T05:18:51;101960.09;;;8.96;90.58
82395;BME280;72031;51.786;4.662;2024-02-21T05:21:16;101958.72;;;8.88;90.83
82395;BME280;72031;51.786;4.662;2024-02-21T05:23:41;101954.16;;;8.90;90.63
82395;BME280;72031;51.786;4.662;2024-02-21T05:26:07;101952.44;;;8.89;90.86
82395;BME280;72031;51.786;4.662;2024-02-21T05:28:33;101937.41;;;8.88;90.32
82395;BME280;72031;51.786;4.662;2024-02-21T05:30:58;101933.88;;;8.87;91.21
82395;BME280;72031;51.786;4.662;2024-02-21T05:33:24;101936.69;;;8.84;90.93
82395;BME280;72031;51.786;4.662;2024-02-21T05:35:50;101929.91;;;8.77;90.39
82395;BME280;72031;51.786;4.662;2024-02-21T05:38:16;101933.03;;;8.87;90.75
82395;BME280;72031;51.786;4.662;2024-02-21T05:40:42;101934.81;;;8.86;90.81
82395;BME280;72031;51.786;4.662;2024-02-21T05:43:08;101928.97;;;8.78;90.91
82395;BME280;72031;51.786;4.662;2024-02-21T05:45:35;101925.72;;;8.71;91.00
82395;BME280;72031;51.786;4.662;2024-02-21T05:48:00;101926.81;;;8.67;91.16
82395;BME280;72031;51.786;4.662;2024-02-21T05:50:26;101908.09;;;8.69;91.79
82395;BME280;72031;51.786;4.662;2024-02-21T05:52:54;101921.94;;;8.77;90.89
82395;BME280;72031;51.786;4.662;2024-02-21T05:55:21;101904.00;;;8.81;90.37
82395;BME280;72031;51.786;4.662;2024-02-21T05:57:46;101900.75;;;8.74;90.67
82395;BME280;72031;51.786;4.662;2024-02-21T06:00:13;101892.25;;;8.66;90.94
82395;BME280;72031;51.786;4.662;2024-02-21T06:02:40;101893.78;;;8.71;91.05
82395;BME280;72031;51.786;4.662;2024-02-21T06:05:06;101890.19;;;8.72;91.15
82395;BME280;72031;51.786;4.662;2024-02-21T06:07:35;101890.41;;;8.68;90.99
82395;BME280;72031;51.786;4.662;2024-02-21T06:10:02;101888.34;;;8.74;90.78
82395;BME280;72031;51.786;4.662;2024-02-21T06:12:27;101892.00;;;8.72;90.48
82395;BME280;72031;51.786;4.662;2024-02-21T06:14:53;101882.19;;;8.72;90.69
82395;BME280;72031;51.786;4.662;2024-02-21T06:17:18;101889.13;;;8.77;90.64
82395;BME280;72031;51.786;4.662;2024-02-21T06:19:44;101894.22;;;8.81;90.21
82395;BME280;72031;51.786;4.662;2024-02-21T06:22:10;101893.59;;;8.76;90.90
82395;BME280;72031;51.786;4.662;2024-02-21T06:24:35;101891.56;;;8.81;90.41
82395;BME280;72031;51.786;4.662;2024-02-21T06:27:03;101897.03;;;8.78;90.57
82395;BME280;72031;51.786;4.662;2024-02-21T06:29:28;101896.69;;;8.86;90.65
82395;BME280;72031;51.786;4.662;2024-02-21T06:31:54;101903.59;;;8.90;90.36
82395;BME280;72031;51.786;4.662;2024-02-21T06:34:19;101897.47;;;8.88;90.33
82395;BME280;72031;51.786;4.662;2024-02-21T06:36:45;101895.41;;;8.94;90.26
82395;BME280;72031;51.786;4.662;2024-02-21T06:39:10;101895.41;;;8.94;90.37
82395;BME280;72031;51.786;4.662;2024-02-21T06:41:37;101892.59;;;8.97;89.51
82395;BME280;72031;51.786;4.662;2024-02-21T06:44:02;101888.44;;;8.92;89.59
82395;BME280;72031;51.786;4.662;2024-02-21T06:46:29;101878.34;;;8.98;90.01
82395;BME280;72031;51.786;4.662;2024-02-21T06:48:55;101882.44;;;9.06;90.17
82395;BME280;72031;51.786;4.662;2024-02-21T06:51:23;101872.47;;;9.11;89.87
82395;BME280;72031;51.786;4.662;2024-02-21T06:53:50;101872.53;;;9.09;89.90
82395;BME280;72031;51.786;4.662;2024-02-21T06:56:15;101868.84;;;9.12;90.04
82395;BME280;72031;51.786;4.662;2024-02-21T06:58:41;101868.19;;;9.07;89.70
82395;BME280;72031;51.786;4.662;2024-02-21T07:01:08;101867.84;;;9.14;90.04
82395;BME280;72031;51.786;4.662;2024-02-21T07:03:33;101860.00;;;9.11;89.11
82395;BME280;72031;51.786;4.662;2024-02-21T07:05:59;101864.59;;;9.08;89.66
82395;BME280;72031;51.786;4.662;2024-02-21T07:08:24;101867.56;;;9.20;89.36
82395;BME280;72031;51.786;4.662;2024-02-21T07:10:49;101861.38;;;9.20;89.17
82395;BME280;72031;51.786;4.662;2024-02-21T07:13:15;101852.72;;;9.15;89.22
82395;BME280;72031;51.786;4.662;2024-02-21T07:15:41;101856.59;;;9.08;90.00
82395;BME280;72031;51.786;4.662;2024-02-21T07:18:07;101856.75;;;9.05;89.34
82395;BME280;72031;51.786;4.662;2024-02-21T07:20:33;101851.50;;;9.03;89.61
82395;BME280;72031;51.786;4.662;2024-02-21T07:23:07;101845.09;;;9.07;89.83
82395;BME280;72031;51.786;4.662;2024-02-21T07:25:32;101844.53;;;9.00;89.52
82395;BME280;72031;51.786;4.662;2024-02-21T07:27:57;101834.09;;;8.96;90.26
82395;BME280;72031;51.786;4.662;2024-02-21T07:30:23;101827.84;;;8.97;89.85
82395;BME280;72031;51.786;4.662;2024-02-21T07:32:49;101820.72;;;8.97;89.61
82395;BME280;72031;51.786;4.662;2024-02-21T07:35:15;101816.31;;;8.96;90.03
82395;BME280;72031;51.786;4.662;2024-02-21T07:37:42;101810.56;;;8.87;90.77
82395;BME280;72031;51.786;4.662;2024-02-21T07:40:15;101806.19;;;8.86;90.65
82395;BME280;72031;51.786;4.662;2024-02-21T07:42:41;101810.50;;;8.88;90.48
82395;BME280;72031;51.786;4.662;2024-02-21T07:45:09;101806.81;;;8.91;89.92
82395;BME280;72031;51.786;4.662;2024-02-21T07:47:35;101808.63;;;8.90;90.74
82395;BME280;72031;51.786;4.662;2024-02-21T07:50:01;101804.09;;;8.92;89.86
82395;BME280;72031;51.786;4.662;2024-02-21T07:52:27;101807.06;;;8.86;90.90
82395;BME280;72031;51.786;4.662;2024-02-21T07:54:53;101796.75;;;8.97;89.96
82395;BME280;72031;51.786;4.662;2024-02-21T07:57:18;101793.47;;;8.92;90.10
82395;BME280;72031;51.786;4.662;2024-02-21T07:59:44;101782.66;;;8.95;90.35
82395;BME280;72031;51.786;4.662;2024-02-21T08:02:09;101767.38;;;8.99;90.84
82395;BME280;72031;51.786;4.662;2024-02-21T08:04:35;101763.38;;;8.90;90.52
82395;BME280;72031;51.786;4.662;2024-02-21T08:07:00;101770.28;;;8.94;90.18
82395;BME280;72031;51.786;4.662;2024-02-21T08:09:28;101779.34;;;8.90;90.66
82395;BME280;72031;51.786;4.662;2024-02-21T08:11:57;101767.47;;;8.97;90.06
82395;BME280;72031;51.786;4.662;2024-02-21T08:14:22;101762.91;;;8.99;89.82
82395;BME280;72031;51.786;4.662;2024-02-21T08:16:51;101765.97;;;8.92;90.48
82395;BME280;72031;51.786;4.662;2024-02-21T08:19:18;101764.22;;;8.91;89.99
82395;BME280;72031;51.786;4.662;2024-02-21T08:21:44;101753.09;;;9.01;90.15
82395;BME280;72031;51.786;4.662;2024-02-21T08:24:12;101749.00;;;8.94;89.53
82395;BME280;72031;51.786;4.662;2024-02-21T08:26:43;101749.59;;;8.99;90.34
82395;BME280;72031;51.786;4.662;2024-02-21T08:29:10;101749.59;;;8.99;90.27
82395;BME280;72031;51.786;4.662;2024-02-21T08:31:37;101740.47;;;9.05;89.19
82395;BME280;72031;51.786;4.662;2024-02-21T08:34:03;101743.81;;;8.91;90.38
82395;BME280;72031;51.786;4.662;2024-02-21T08:36:33;101740.22;;;8.92;89.91
82395;BME280;72031;51.786;4.662;2024-02-21T08:39:00;101735.75;;;8.93;90.29
82395;BME280;72031;51.786;4.662;2024-02-21T08:41:26;101729.41;;;8.95;90.25
82395;BME280;72031;51.786;4.662;2024-02-21T08:43:53;101731.78;;;9.01;89.75
82395;BME280;72031;51.786;4.662;2024-02-21T08:46:25;101730.44;;;8.93;89.80
82395;BME280;72031;51.786;4.662;2024-02-21T08:48:50;101718.97;;;8.91;89.79
82395;BME280;72031;51.786;4.662;2024-02-21T08:51:19;101715.88;;;9.00;90.13
82395;BME280;72031;51.786;4.662;2024-02-21T08:53:45;101715.16;;;8.96;89.72
82395;BME280;72031;51.786;4.662;2024-02-21T08:56:11;101706.22;;;8.97;90.46
82395;BME280;72031;51.786;4.662;2024-02-21T08:58:37;101706.47;;;8.93;90.21
82395;BME280;72031;51.786;4.662;2024-02-21T09:01:03;101705.94;;;9.03;89.35
82395;BME280;72031;51.786;4.662;2024-02-21T09:03:47;101706.97;;;9.01;89.56
82395;BME280;72031;51.786;4.662;2024-02-21T09:06:13;101697.78;;;9.07;89.65
82395;BME280;72031;51.786;4.662;2024-02-21T09:08:39;101689.19;;;9.01;89.69
82395;BME280;72031;51.786;4.662;2024-02-21T09:11:06;101686.63;;;9.17;89.55
82395;BME280;72031;51.786;4.662;2024-02-21T09:13:31;101683.88;;;9.19;88.74
82395;BME280;72031;51.786;4.662;2024-02-21T09:15:57;101676.81;;;9.18;89.05
82395;BME280;72031;51.786;4.662;2024-02-21T09:18:22;101674.16;;;9.18;89.11
82395;BME280;72031;51.786;4.662;2024-02-21T09:20:51;101656.78;;;9.28;88.22
82395;BME280;72031;51.786;4.662;2024-02-21T09:23:17;101649.56;;;9.30;88.61
82395;BME280;72031;51.786;4.662;2024-02-21T09:25:45;101642.69;;;9.26;87.99
82395;BME280;72031;51.786;4.662;2024-02-21T09:28:11;101633.00;;;9.41;87.81
82395;BME280;72031;51.786;4.662;2024-02-21T09:30:38;101632.09;;;9.42;87.50
82395;BME280;72031;51.786;4.662;2024-02-21T09:33:04;101622.66;;;9.52;87.23
82395;BME280;72031;51.786;4.662;2024-02-21T09:35:31;101621.94;;;9.48;87.36
82395;BME280;72031;51.786;4.662;2024-02-21T09:37:59;101606.06;;;9.47;87.02
82395;BME280;72031;51.786;4.662;2024-02-21T09:40:25;101602.81;;;9.57;87.01
82395;BME280;72031;51.786;4.662;2024-02-21T09:43:00;101591.06;;;9.62;86.42
82395;BME280;72031;51.786;4.662;2024-02-21T09:45:28;101580.22;;;9.65;86.74
82395;BME280;72031;51.786;4.662;2024-02-21T09:50:43;101558.94;;;9.80;85.53
82395;BME280;72031;51.786;4.662;2024-02-21T09:53:12;101562.88;;;9.89;85.65
82395;BME280;72031;51.786;4.662;2024-02-21T09:55:39;101566.25;;;9.77;85.63
82395;BME280;72031;51.786;4.662;2024-02-21T09:58:07;101557.88;;;9.83;84.83
82395;BME280;72031;51.786;4.662;2024-02-21T10:00:35;101559.97;;;9.78;85.66
82395;BME280;72031;51.786;4.662;2024-02-21T10:03:01;101553.50;;;9.82;86.22
82395;BME280;72031;51.786;4.662;2024-02-21T10:05:26;101543.97;;;9.78;85.62
82395;BME280;72031;51.786;4.662;2024-02-21T10:07:52;101542.50;;;9.72;85.71
82395;BME280;72031;51.786;4.662;2024-02-21T10:10:18;101520.75;;;9.80;85.54
82395;BME280;72031;51.786;4.662;2024-02-21T10:12:51;101504.56;;;9.83;86.91
82395;BME280;72031;51.786;4.662;2024-02-21T10:15:24;101486.00;;;9.81;86.62
82395;BME280;72031;51.786;4.662;2024-02-21T10:17:58;101465.63;;;9.96;85.96
82395;BME280;72031;51.786;4.662;2024-02-21T10:20:24;101451.00;;;10.03;84.46
82395;BME280;72031;51.786;4.662;2024-02-21T10:23:03;101440.13;;;10.06;84.98
82395;BME280;72031;51.786;4.662;2024-02-21T10:25:36;101445.47;;;10.06;84.05
82395;BME280;72031;51.786;4.662;2024-02-21T10:28:07;101496.31;;;10.03;84.62
82395;BME280;72031;51.786;4.662;2024-02-21T10:30:32;101499.25;;;9.83;85.14
82395;BME280;72031;51.786;4.662;2024-02-21T10:32:58;101507.69;;;9.75;85.35
82395;BME280;72031;51.786;4.662;2024-02-21T10:35:31;101497.47;;;9.68;85.55
82395;BME280;72031;51.786;4.662;2024-02-21T10:37:58;101497.16;;;9.56;85.52
82395;BME280;72031;51.786;4.662;2024-02-21T10:40:26;101503.34;;;9.57;86.01
82395;BME280;72031;51.786;4.662;2024-02-21T10:42:59;101503.31;;;9.58;85.60
82395;BME280;72031;51.786;4.662;2024-02-21T10:45:34;101499.84;;;9.56;84.47
82395;BME280;72031;51.786;4.662;2024-02-21T10:48:22;101495.13;;;9.62;85.29
82395;BME280;72031;51.786;4.662;2024-02-21T10:51:03;101488.59;;;9.67;83.76
82395;BME280;72031;51.786;4.662;2024-02-21T10:56:32;101474.25;;;9.70;83.52
82395;BME280;72031;51.786;4.662;2024-02-21T10:59:04;101467.00;;;9.72;84.42
82395;BME280;72031;51.786;4.662;2024-02-21T11:01:30;101463.31;;;9.74;83.80
82395;BME280;72031;51.786;4.662;2024-02-21T11:04:08;101470.09;;;9.80;83.83
82395;BME280;72031;51.786;4.662;2024-02-21T11:06:38;101472.16;;;9.75;83.28
82395;BME280;72031;51.786;4.662;2024-02-21T11:09:09;101452.81;;;9.87;83.43
82395;BME280;72031;51.786;4.662;2024-02-21T11:11:38;101439.28;;;10.06;82.77
82395;BME280;72031;51.786;4.662;2024-02-21T11:14:26;101442.25;;;10.15;82.42
82395;BME280;72031;51.786;4.662;2024-02-21T11:16:51;101436.50;;;10.23;82.36
82395;BME280;72031;51.786;4.662;2024-02-21T11:19:25;101428.78;;;10.19;81.70
82395;BME280;72031;51.786;4.662;2024-02-21T11:21:53;101418.16;;;10.17;81.87
82395;BME280;72031;51.786;4.662;2024-02-21T11:24:30;101381.34;;;10.24;81.56
82395;BME280;72031;51.786;4.662;2024-02-21T11:27:15;101375.66;;;10.30;80.94
82395;BME280;72031;51.786;4.662;2024-02-21T11:29:48;101369.00;;;10.37;82.19
82395;BME280;72031;51.786;4.662;2024-02-21T11:32:18;101381.03;;;10.44;80.14
82395;BME280;72031;51.786;4.662;2024-02-21T11:34:57;101381.03;;;10.44;81.40
82395;BME280;72031;51.786;4.662;2024-02-21T11:37:34;101372.34;;;10.40;81.78
82395;BME280;72031;51.786;4.662;2024-02-21T11:40:03;101359.28;;;10.36;80.60
82395;BME280;72031;51.786;4.662;2024-02-21T11:42:29;101349.84;;;10.30;80.83
82395;BME280;72031;51.786;4.662;2024-02-21T11:44:56;101355.47;;;10.26;81.06
82395;BME280;72031;51.786;4.662;2024-02-21T11:47:25;101345.13;;;10.20;81.53
82395;BME280;72031;51.786;4.662;2024-02-21T11:49:53;101343.16;;;10.23;81.44
82395;BME280;72031;51.786;4.662;2024-02-21T11:52:21;101330.09;;;10.19;81.36
82395;BME280;72031;51.786;4.662;2024-02-21T11:54:48;101317.50;;;10.21;82.02
82395;BME280;72031;51.786;4.662;2024-02-21T11:57:13;101323.78;;;10.20;81.31
82395;BME280;72031;51.786;4.662;2024-02-21T11:59:40;101334.56;;;10.18;81.13
82395;BME280;72031;51.786;4.662;2024-02-21T12:02:06;101317.22;;;10.11;81.73
82395;BME280;72031;51.786;4.662;2024-02-21T12:04:33;101299.16;;;10.00;80.71
82395;BME280;72031;51.786;4.662;2024-02-21T12:06:59;101288.28;;;9.89;80.83
82395;BME280;72031;51.786;4.662;2024-02-21T12:09:26;101279.63;;;10.00;81.55
82395;BME280;72031;51.786;4.662;2024-02-21T12:12:05;101268.81;;;10.17;81.76
82395;BME280;72031;51.786;4.662;2024-02-21T12:14:32;101258.44;;;10.12;80.50
82395;BME280;72031;51.786;4.662;2024-02-21T12:16:59;101259.75;;;10.05;81.10
82395;BME280;72031;51.786;4.662;2024-02-21T12:19:26;101244.50;;;10.07;81.69
82395;BME280;72031;51.786;4.662;2024-02-21T12:21:53;101234.63;;;9.95;81.46
82395;BME280;72031;51.786;4.662;2024-02-21T12:24:25;101225.28;;;10.02;82.37
82395;BME280;72031;51.786;4.662;2024-02-21T12:26:51;101213.31;;;10.09;81.14
82395;BME280;72031;51.786;4.662;2024-02-21T12:29:18;101205.00;;;10.14;81.51
82395;BME280;72031;51.786;4.662;2024-02-21T12:31:44;101193.69;;;10.25;81.20
82395;BME280;72031;51.786;4.662;2024-02-21T12:34:10;101179.00;;;10.18;80.31
82395;BME280;72031;51.786;4.662;2024-02-21T12:36:43;101178.63;;;10.09;81.77
82395;BME280;72031;51.786;4.662;2024-02-21T12:39:13;101179.50;;;10.24;82.36
82395;BME280;72031;51.786;4.662;2024-02-21T12:41:39;101175.00;;;10.25;81.95
82395;BME280;72031;51.786;4.662;2024-02-21T12:44:07;101172.72;;;10.33;81.44
82395;BME280;72031;51.786;4.662;2024-02-21T12:46:35;101175.69;;;10.28;81.30
82395;BME280;72031;51.786;4.662;2024-02-21T12:49:02;101162.25;;;10.30;80.90
82395;BME280;72031;51.786;4.662;2024-02-21T12:51:28;101179.38;;;10.11;82.05
82395;BME280;72031;51.786;4.662;2024-02-21T12:53:55;101171.94;;;10.16;81.90
82395;BME280;72031;51.786;4.662;2024-02-21T12:56:20;101167.97;;;10.24;82.08
82395;BME280;72031;51.786;4.662;2024-02-21T12:58:46;101153.28;;;10.31;81.50
82395;BME280;72031;51.786;4.662;2024-02-21T13:01:12;101144.53;;;10.29;81.66
82395;BME280;72031;51.786;4.662;2024-02-21T13:03:37;101146.03;;;10.19;81.69